Time;durP1;ratioP1;P1;durP2;ratioP2;P2;SDS_P1;SDS_P2;PMS_P1;PMS_P2;Temp;Humidity;BMP_temperature;BMP_pressure;BME280_temperature;BME280_humidity;BME280_pressure;Samples;Min_cycle;Max_cycle;Signal;HPM_P1;HPM_P2
2023/06/20 00:00:10;;;;;;;8.77;5.97;;;;;;;;;;2056049;28;20137;-91
2023/06/20 00:01:11;;;;;;;8.07;6.05;;;;;;;;;;2055847;28;20101;-90
2023/06/20 00:02:11;;;;;;;7.55;6.03;;;;;;;;;;2055927;28;20137;-90
2023/06/20 00:03:14;;;;;;;10.82;6.57;;;;;;;;;;2055671;28;20026;-91
2023/06/20 00:04:15;;;;;;;7.90;6.32;;;;;;;;;;2055754;28;20034;-90
2023/06/20 00:05:15;;;;;;;10.18;6.30;;;;;;;;;;2055529;28;20506;-91
2023/06/20 00:06:16;;;;;;;8.40;6.28;;;;;;;;;;2056529;28;20121;-90
2023/06/20 00:07:16;;;;;;;7.97;6.53;;;;;;;;;;2061460;28;20026;-91
2023/06/20 00:08:16;;;;;;;9.23;6.43;;;;;;;;;;2061885;28;20118;-91
2023/06/20 00:09:17;;;;;;;7.15;5.82;;;;;;;;;;2065445;28;20079;-91
2023/06/20 00:10:17;;;;;;;8.90;5.90;;;;;;;;;;2065291;28;20031;-91
2023/06/20 00:11:18;;;;;;;9.38;5.93;;;;;;;;;;2065467;28;20083;-91
2023/06/20 00:12:19;;;;;;;9.43;6.63;;;;;;;;;;2061814;28;20026;-90
2023/06/20 00:13:19;;;;;;;8.38;6.20;;;;;;;;;;2060556;28;20471;-89
2023/06/20 00:14:20;;;;;;;8.18;5.88;;;;;;;;;;2048652;29;20034;-89
2023/06/20 00:15:25;;;;;;;8.40;5.90;;;;;;;;;;2048145;29;20031;-89
2023/06/20 00:16:28;;;;;;;10.45;6.57;;;;;;;;;;2058226;28;20030;-89
2023/06/20 00:17:29;;;;;;;9.00;5.90;;;;;;;;;;2055515;28;20058;-90
2023/06/20 00:18:29;;;;;;;8.48;5.82;;;;;;;;;;2055477;28;20514;-89
2023/06/20 00:19:31;;;;;;;7.10;6.05;;;;;;;;;;2056392;28;20027;-89
2023/06/20 00:20:31;;;;;;;6.90;6.00;;;;;;;;;;2056616;28;20030;-90
2023/06/20 00:21:32;;;;;;;9.43;6.38;;;;;;;;;;2055178;28;20031;-89
2023/06/20 00:22:34;;;;;;;8.43;6.13;;;;;;;;;;2055676;28;20102;-90
2023/06/20 00:23:35;;;;;;;9.60;6.63;;;;;;;;;;2055601;28;20031;-90
2023/06/20 00:24:35;;;;;;;9.15;6.40;;;;;;;;;;2055486;28;20423;-90
2023/06/20 00:25:36;;;;;;;8.50;6.03;;;;;;;;;;2055322;28;20407;-89
2023/06/20 00:26:37;;;;;;;7.05;6.15;;;;;;;;;;2055454;28;20034;-89
2023/06/20 00:27:38;;;;;;;7.05;5.72;;;;;;;;;;2055254;28;20069;-89
2023/06/20 00:28:39;;;;;;;7.57;5.85;;;;;;;;;;2055437;28;20085;-90
2023/06/20 00:29:40;;;;;;;8.02;6.55;;;;;;;;;;2047457;29;20031;-90
2023/06/20 00:30:41;;;;;;;10.18;6.43;;;;;;;;;;2047649;29;20045;-89
2023/06/20 00:31:41;;;;;;;7.32;5.97;;;;;;;;;;2047576;28;20491;-89
2023/06/20 00:32:42;;;;;;;9.15;6.10;;;;;;;;;;2055474;28;20097;-89
2023/06/20 00:33:42;;;;;;;7.15;5.50;;;;;;;;;;2055547;28;20019;-89
2023/06/20 00:34:42;;;;;;;10.48;6.30;;;;;;;;;;2055577;28;20077;-89
2023/06/20 00:35:43;;;;;;;10.23;6.38;;;;;;;;;;2056122;28;20400;-89
2023/06/20 00:36:43;;;;;;;8.82;6.15;;;;;;;;;;2056832;28;20062;-90
2023/06/20 00:37:44;;;;;;;10.88;7.22;;;;;;;;;;2059756;28;20091;-88
2023/06/20 00:38:48;;;;;;;7.43;6.38;;;;;;;;;;2059060;28;20129;-89
2023/06/20 00:39:49;;;;;;;12.20;6.00;;;;;;;;;;2052674;28;20036;-89
2023/06/20 00:40:49;;;;;;;6.95;5.80;;;;;;;;;;2055657;28;20553;-88
2023/06/20 00:41:50;;;;;;;8.65;5.68;;;;;;;;;;2055688;28;20530;-89
2023/06/20 00:42:51;;;;;;;8.65;6.45;;;;;;;;;;2056042;28;20022;-89
2023/06/20 00:43:52;;;;;;;7.32;6.22;;;;;;;;;;2056433;28;20021;-89
2023/06/20 00:44:52;;;;;;;9.48;5.80;;;;;;;;;;2056543;28;20030;-89
2023/06/20 00:45:53;;;;;;;12.25;6.47;;;;;;;;;;2055464;28;20092;-89
2023/06/20 00:46:53;;;;;;;7.75;6.15;;;;;;;;;;2055871;28;20096;-89
2023/06/20 00:47:55;;;;;;;7.47;5.25;;;;;;;;;;2056698;28;20434;-90
2023/06/20 00:48:56;;;;;;;9.40;6.13;;;;;;;;;;2056495;28;20030;-89
2023/06/20 00:49:57;;;;;;;7.47;6.00;;;;;;;;;;2055771;28;20038;-89
2023/06/20 00:50:58;;;;;;;10.52;6.18;;;;;;;;;;2055830;28;20057;-89
2023/06/20 00:52:01;;;;;;;8.35;5.70;;;;;;;;;;2056146;28;20018;-89
2023/06/20 00:53:05;;;;;;;10.95;5.93;;;;;;;;;;2055455;28;20113;-89
2023/06/20 00:54:06;;;;;;;7.95;6.32;;;;;;;;;;2047835;28;20061;-89
2023/06/20 00:55:07;;;;;;;9.77;5.75;;;;;;;;;;2055241;28;20513;-89
2023/06/20 00:56:11;;;;;;;7.30;5.82;;;;;;;;;;2056182;28;20401;-90
2023/06/20 00:57:16;;;;;;;9.18;5.53;;;;;;;;;;2055648;28;20031;-90
2023/06/20 00:58:16;;;;;;;7.53;5.65;;;;;;;;;;2056200;28;20085;-90
2023/06/20 00:59:16;;;;;;;9.45;6.20;;;;;;;;;;2056343;28;20149;-89
2023/06/20 01:00:17;;;;;;;6.93;5.80;;;;;;;;;;1708901;28;10082826;-90
2023/06/20 01:01:18;;;;;;;9.27;6.35;;;;;;;;;;2055537;28;20498;-90
2023/06/20 01:02:21;;;;;;;9.93;5.90;;;;;;;;;;1706878;28;10156597;-90
2023/06/20 01:03:22;;;;;;;11.07;6.18;;;;;;;;;;2055279;28;20442;-91
2023/06/20 01:04:23;;;;;;;10.43;5.82;;;;;;;;;;2056137;28;20023;-90
2023/06/20 01:05:27;;;;;;;9.85;5.88;;;;;;;;;;2056166;28;20025;-90
2023/06/20 01:06:36;;;;;;;7.30;5.70;;;;;;;;;;2055665;28;20410;-91
2023/06/20 01:07:57;;;;;;;8.07;5.93;;;;;;;;;;2055468;28;20026;-90
2023/06/20 01:09:13;;;;;;;8.77;5.88;;;;;;;;;;2055596;28;20034;-90
2023/06/20 01:10:52;;;;;;;12.30;5.93;;;;;;;;;;2055870;28;20031;-90
2023/06/20 01:12:01;;;;;;;8.43;5.80;;;;;;;;;;2023261;29;20088;-90
2023/06/20 01:13:24;;;;;;;7.05;5.80;;;;;;;;;;2023428;29;20067;-90
2023/06/20 01:14:31;;;;;;;8.30;6.13;;;;;;;;;;2026425;29;20043;-90
2023/06/20 01:15:34;;;;;;;10.02;5.95;;;;;;;;;;2031207;29;20063;-90
2023/06/20 01:16:51;;;;;;;8.15;5.88;;;;;;;;;;2031055;29;20040;-89
2023/06/20 01:17:59;;;;;;;8.38;5.75;;;;;;;;;;2049006;28;20057;-90
2023/06/20 01:19:31;;;;;;;8.27;5.60;;;;;;;;;;2048703;28;20027;-89
2023/06/20 01:20:33;;;;;;;;;;;;;;;;;;2051537;28;20442;-90
2023/06/20 01:21:41;;;;;;;9.73;5.75;;;;;;;;;;2047513;28;19921;-89
2023/06/20 01:22:57;;;;;;;9.40;5.85;;;;;;;;;;2048208;28;20055;-90
2023/06/20 01:24:13;;;;;;;13.02;6.40;;;;;;;;;;2049143;28;20051;-90
2023/06/20 01:25:46;;;;;;;8.82;5.80;;;;;;;;;;2049808;28;20031;-90
2023/06/20 01:27:17;;;;;;;7.97;5.50;;;;;;;;;;2056506;28;20035;-88
2023/06/20 01:28:43;;;;;;;8.38;6.20;;;;;;;;;;2055466;28;20035;-90
2023/06/20 01:29:50;;;;;;;9.00;6.00;;;;;;;;;;2056092;28;20050;-89
2023/06/20 01:31:07;;;;;;;9.43;5.90;;;;;;;;;;2057177;28;20403;-90
2023/06/20 01:32:12;;;;;;;9.65;6.75;;;;;;;;;;2057476;28;20034;-90
2023/06/20 01:33:17;;;;;;;8.73;6.03;;;;;;;;;;2057538;28;20520;-90
2023/06/20 01:34:27;;;;;;;11.18;6.05;;;;;;;;;;2057316;28;20562;-90
2023/06/20 01:35:31;;;;;;;10.32;6.45;;;;;;;;;;2057023;28;20102;-90
2023/06/20 01:36:35;;;;;;;8.68;5.97;;;;;;;;;;2057321;28;20184;-90
2023/06/20 01:37:38;;;;;;;9.22;5.30;;;;;;;;;;982488;28;10001312;-90
2023/06/20 01:38:40;;;;;;;6.90;5.53;;;;;;;;;;1687141;29;10000359;-90
2023/06/20 01:39:45;;;;;;;8.88;6.07;;;;;;;;;;2046300;28;20027;-90
2023/06/20 01:40:50;;;;;;;11.80;6.40;;;;;;;;;;2056178;28;20011;-89
2023/06/20 01:41:51;;;;;;;10.27;5.85;;;;;;;;;;1684985;28;10800091;-90
2023/06/20 01:42:56;;;;;;;9.80;5.90;;;;;;;;;;2055219;28;20519;-90
2023/06/20 01:43:59;;;;;;;7.90;6.18;;;;;;;;;;2055095;28;20085;-90
2023/06/20 01:45:02;;;;;;;8.52;6.18;;;;;;;;;;2047449;28;20484;-90
2023/06/20 01:46:06;;;;;;;7.53;5.82;;;;;;;;;;2055168;28;20058;-90
2023/06/20 01:47:08;;;;;;;8.85;5.97;;;;;;;;;;2055361;28;20034;-90
2023/06/20 01:48:11;;;;;;;8.77;6.13;;;;;;;;;;2047332;28;20035;-90
2023/06/20 01:49:13;;;;;;;8.25;6.18;;;;;;;;;;2055027;28;20122;-89
2023/06/20 01:50:15;;;;;;;8.02;6.03;;;;;;;;;;2055195;28;20034;-89
2023/06/20 01:51:17;;;;;;;10.00;5.93;;;;;;;;;;2047161;28;20137;-89
2023/06/20 01:52:20;;;;;;;8.27;6.07;;;;;;;;;;2055194;28;20038;-90
2023/06/20 01:53:24;;;;;;;9.23;5.97;;;;;;;;;;2055080;28;20101;-90
2023/06/20 01:54:27;;;;;;;9.30;6.13;;;;;;;;;;2055346;28;20124;-90
2023/06/20 01:55:29;;;;;;;7.53;5.93;;;;;;;;;;2054929;28;20090;-90
2023/06/20 01:56:31;;;;;;;8.93;5.65;;;;;;;;;;2047283;28;20163;-89
2023/06/20 01:57:34;;;;;;;10.82;6.35;;;;;;;;;;2047149;28;20026;-90
2023/06/20 01:58:36;;;;;;;7.38;5.35;;;;;;;;;;2047198;28;20431;-89
2023/06/20 01:59:38;;;;;;;8.85;6.20;;;;;;;;;;2055259;28;20093;-90
2023/06/20 02:00:39;;;;;;;11.15;6.15;;;;;;;;;;2054891;28;20122;-90
2023/06/20 02:01:42;;;;;;;9.02;6.18;;;;;;;;;;2055170;28;20390;-90
2023/06/20 02:02:45;;;;;;;10.00;6.22;;;;;;;;;;2055116;28;20034;-90
2023/06/20 02:03:47;;;;;;;13.55;5.97;;;;;;;;;;2055767;28;20037;-90
2023/06/20 02:04:49;;;;;;;9.57;6.10;;;;;;;;;;2055533;28;20154;-90
2023/06/20 02:05:50;;;;;;;8.05;6.28;;;;;;;;;;2055642;28;20023;-90
2023/06/20 02:06:52;;;;;;;9.13;6.03;;;;;;;;;;2055035;28;20310;-90
2023/06/20 02:07:55;;;;;;;9.18;5.70;;;;;;;;;;1700697;28;10332476;-90
2023/06/20 02:08:57;;;;;;;11.68;6.03;;;;;;;;;;2055040;28;20062;-90
2023/06/20 02:09:59;;;;;;;9.20;5.88;;;;;;;;;;2047043;28;20023;-90
2023/06/20 02:11:01;;;;;;;9.13;5.80;;;;;;;;;;2054937;28;20549;-89
2023/06/20 02:12:01;;;;;;;17.00;7.28;;;;;;;;;;2055750;28;20725;-89
2023/06/20 02:13:02;;;;;;;9.25;6.00;;;;;;;;;;2054728;28;20035;-90
2023/06/20 02:14:03;;;;;;;10.85;6.15;;;;;;;;;;2055277;28;20169;-89
2023/06/20 02:15:05;;;;;;;8.23;5.60;;;;;;;;;;2058170;28;20023;-89
2023/06/20 02:16:08;;;;;;;10.20;6.45;;;;;;;;;;2065308;28;20079;-89
2023/06/20 02:17:08;;;;;;;9.27;5.93;;;;;;;;;;2065391;28;20038;-90
2023/06/20 02:18:08;;;;;;;7.68;5.97;;;;;;;;;;2057484;28;20084;-89
2023/06/20 02:19:10;;;;;;;8.98;6.30;;;;;;;;;;2065463;28;20094;-89
2023/06/20 02:20:10;;;;;;;11.13;5.85;;;;;;;;;;2065541;28;20026;-90
2023/06/20 02:21:19;;;;;;;9.95;6.80;;;;;;;;;;2049768;29;20113;-89
2023/06/20 02:22:22;;;;;;;10.70;6.30;;;;;;;;;;2055207;28;20113;-88
2023/06/20 02:23:28;;;;;;;8.63;6.38;;;;;;;;;;2055344;28;20125;-91
2023/06/20 02:24:32;;;;;;;9.77;5.88;;;;;;;;;;2055496;28;20034;-91
2023/06/20 02:25:35;;;;;;;9.55;5.55;;;;;;;;;;2055860;28;20489;-91
2023/06/20 02:26:41;;;;;;;9.23;5.95;;;;;;;;;;2056174;28;20118;-91
2023/06/20 02:27:49;;;;;;;11.26;6.18;;;;;;;;;;1570488;28;10277405;-91
2023/06/20 02:28:54;;;;;;;11.82;6.20;;;;;;;;;;2055257;28;20244;-89
2023/06/20 02:29:56;;;;;;;8.80;5.90;;;;;;;;;;2055134;28;20108;-90
2023/06/20 02:30:58;;;;;;;8.60;6.57;;;;;;;;;;1709152;28;10142387;-90
2023/06/20 02:32:01;;;;;;;9.00;6.82;;;;;;;;;;2055206;28;20085;-90
2023/06/20 02:33:05;;;;;;;7.65;5.93;;;;;;;;;;2055427;28;20110;-90
2023/06/20 02:34:09;;;;;;;11.35;6.22;;;;;;;;;;2060303;28;20027;-90
2023/06/20 02:35:13;;;;;;;9.68;6.25;;;;;;;;;;2065925;28;20033;-90
2023/06/20 02:36:13;;;;;;;9.02;6.53;;;;;;;;;;2065827;28;20035;-90
2023/06/20 02:37:15;;;;;;;10.43;6.00;;;;;;;;;;2064625;28;20030;-89
2023/06/20 02:38:16;;;;;;;11.60;5.85;;;;;;;;;;2063672;28;20057;-89
2023/06/20 02:39:18;;;;;;;11.52;6.25;;;;;;;;;;2053197;28;20023;-90
2023/06/20 02:40:23;;;;;;;9.43;6.80;;;;;;;;;;2060726;28;20145;-89
2023/06/20 02:41:24;;;;;;;9.05;6.00;;;;;;;;;;2059061;28;20113;-89
2023/06/20 02:42:24;;;;;;;11.57;6.50;;;;;;;;;;2056414;28;20459;-89
2023/06/20 02:43:24;;;;;;;9.60;6.35;;;;;;;;;;2056671;28;20453;-90
2023/06/20 02:44:25;;;;;;;7.40;6.00;;;;;;;;;;2056639;28;20093;-89
2023/06/20 02:45:25;;;;;;;6.80;5.82;;;;;;;;;;2056929;28;20144;-91
2023/06/20 02:46:57;;;;;;;9.70;6.00;;;;;;;;;;2057153;28;20118;-90
2023/06/20 02:48:35;;;;;;;9.75;5.53;;;;;;;;;;2056846;28;20034;-90
2023/06/20 02:49:54;;;;;;;9.93;6.05;;;;;;;;;;2040373;29;20144;-96
2023/06/20 02:51:07;;;;;;;9.23;5.68;;;;;;;;;;2047054;29;20031;-94
2023/06/20 02:52:35;;;;;;;9.85;6.13;;;;;;;;;;2046698;28;20043;-93
2023/06/20 02:54:07;;;;;;;11.57;6.20;;;;;;;;;;2054385;28;20046;-95
2023/06/20 02:55:07;;;;;;;;;;;;;;;;;;2058673;28;20030;-95
2023/06/20 02:56:12;;;;;;;9.07;6.90;;;;;;;;;;2050818;29;19910;-95
2023/06/20 02:57:18;;;;;;;8.73;5.75;;;;;;;;;;2050639;28;20499;-96
2023/06/20 02:58:21;;;;;;;7.68;5.70;;;;;;;;;;2051107;28;20118;-96
2023/06/20 02:59:26;;;;;;;9.38;6.00;;;;;;;;;;1700071;28;10400940;-95
2023/06/20 03:00:29;;;;;;;9.32;5.63;;;;;;;;;;2057195;28;20153;-96
2023/06/20 03:01:32;;;;;;;8.35;5.85;;;;;;;;;;1713286;28;10002007;-94
2023/06/20 03:02:34;;;;;;;11.02;6.32;;;;;;;;;;2058997;28;20465;-96
2023/06/20 03:03:38;;;;;;;8.95;6.13;;;;;;;;;;2064370;28;20030;-95
2023/06/20 03:04:41;;;;;;;8.50;6.60;;;;;;;;;;2065599;28;20023;-95
2023/06/20 03:05:43;;;;;;;7.63;6.10;;;;;;;;;;2050195;28;20074;-96
2023/06/20 03:06:51;;;;;;;8.75;6.35;;;;;;;;;;2057940;28;20027;-94
2023/06/20 03:07:52;;;;;;;7.45;6.13;;;;;;;;;;2056514;28;20022;-90
2023/06/20 03:08:55;;;;;;;8.77;6.68;;;;;;;;;;2057462;28;20065;-90
2023/06/20 03:09:57;;;;;;;8.38;6.68;;;;;;;;;;2056655;28;20037;-90
2023/06/20 03:10:58;;;;;;;10.60;7.00;;;;;;;;;;2056479;28;20609;-90
2023/06/20 03:11:59;;;;;;;9.13;6.45;;;;;;;;;;2057437;28;20030;-90
2023/06/20 03:13:00;;;;;;;8.20;6.43;;;;;;;;;;2057468;28;20497;-90
2023/06/20 03:14:01;;;;;;;8.48;6.28;;;;;;;;;;2056594;28;20018;-92
2023/06/20 03:15:04;;;;;;;12.85;6.65;;;;;;;;;;2056567;28;20042;-92
2023/06/20 03:16:08;;;;;;;13.40;6.60;;;;;;;;;;2056977;28;20034;-91
2023/06/20 03:17:09;;;;;;;7.18;6.30;;;;;;;;;;2056403;28;20109;-91
2023/06/20 03:18:11;;;;;;;11.32;6.15;;;;;;;;;;2048361;29;20031;-91
2023/06/20 03:19:12;;;;;;;9.75;5.97;;;;;;;;;;2056248;28;20039;-91
2023/06/20 03:20:13;;;;;;;12.35;6.43;;;;;;;;;;2056319;28;20031;-91
2023/06/20 03:21:13;;;;;;;9.95;6.43;;;;;;;;;;2041575;28;20046;-91
2023/06/20 03:22:14;;;;;;;8.85;6.05;;;;;;;;;;2047902;29;20541;-91
2023/06/20 03:23:15;;;;;;;11.55;6.45;;;;;;;;;;2048171;29;20308;-91
2023/06/20 03:24:15;;;;;;;10.40;6.72;;;;;;;;;;2048298;28;20591;-92
2023/06/20 03:25:16;;;;;;;11.30;6.75;;;;;;;;;;2056316;28;20057;-91
2023/06/20 03:26:17;;;;;;;8.48;6.55;;;;;;;;;;2056813;28;20031;-90
2023/06/20 03:27:17;;;;;;;9.98;6.30;;;;;;;;;;2056906;28;20023;-91
2023/06/20 03:28:18;;;;;;;7.85;6.40;;;;;;;;;;2056091;28;20070;-91
2023/06/20 03:29:18;;;;;;;9.57;6.57;;;;;;;;;;2056172;28;20511;-91
2023/06/20 03:30:20;;;;;;;11.70;6.50;;;;;;;;;;2056989;28;20037;-91
2023/06/20 03:31:20;;;;;;;13.45;7.03;;;;;;;;;;2056837;28;20106;-92
2023/06/20 03:32:21;;;;;;;9.90;6.45;;;;;;;;;;2056884;28;20037;-91
2023/06/20 03:33:22;;;;;;;9.63;6.70;;;;;;;;;;2056046;28;20034;-91
2023/06/20 03:34:22;;;;;;;10.13;6.50;;;;;;;;;;2048278;29;20031;-92
2023/06/20 03:35:22;;;;;;;11.23;6.50;;;;;;;;;;2057368;28;20094;-91
2023/06/20 03:36:23;;;;;;;9.93;6.80;;;;;;;;;;2056046;28;20030;-91
2023/06/20 03:37:23;;;;;;;8.45;6.10;;;;;;;;;;2056323;28;20510;-90
2023/06/20 03:38:24;;;;;;;11.43;6.38;;;;;;;;;;2056310;28;20066;-91
2023/06/20 03:39:24;;;;;;;8.82;6.53;;;;;;;;;;2056955;28;20106;-91
2023/06/20 03:40:25;;;;;;;8.48;6.57;;;;;;;;;;2056951;28;20027;-91
2023/06/20 03:41:25;;;;;;;11.73;7.78;;;;;;;;;;2056963;28;20489;-91
2023/06/20 03:42:25;;;;;;;8.60;6.93;;;;;;;;;;2056148;28;20027;-91
2023/06/20 03:43:27;;;;;;;11.30;6.55;;;;;;;;;;2056159;28;20105;-90
2023/06/20 03:44:28;;;;;;;9.15;6.40;;;;;;;;;;2056156;28;20023;-91
2023/06/20 03:45:28;;;;;;;9.10;6.32;;;;;;;;;;2055937;28;20499;-91
2023/06/20 03:46:28;;;;;;;11.20;6.70;;;;;;;;;;2048275;29;20076;-91
2023/06/20 03:47:29;;;;;;;9.98;6.90;;;;;;;;;;2056401;28;20431;-91
2023/06/20 03:48:29;;;;;;;8.90;6.32;;;;;;;;;;2056062;28;20494;-91
2023/06/20 03:49:30;;;;;;;14.10;7.05;;;;;;;;;;2048096;29;20031;-91
2023/06/20 03:50:30;;;;;;;10.52;6.95;;;;;;;;;;2048224;29;20027;-91
2023/06/20 03:51:31;;;;;;;11.95;7.07;;;;;;;;;;2056781;28;20069;-91
2023/06/20 03:52:31;;;;;;;10.43;6.32;;;;;;;;;;2058433;28;20109;-90
2023/06/20 03:53:32;;;;;;;8.63;6.10;;;;;;;;;;2052936;29;20047;-90
2023/06/20 03:54:34;;;;;;;8.45;6.30;;;;;;;;;;2050537;28;20418;-90
2023/06/20 03:55:35;;;;;;;11.57;6.90;;;;;;;;;;2056570;28;20049;-90
2023/06/20 03:56:35;;;;;;;9.70;6.30;;;;;;;;;;2056220;28;20031;-91
2023/06/20 03:57:36;;;;;;;13.05;7.40;;;;;;;;;;2056917;28;20065;-91
2023/06/20 03:58:38;;;;;;;11.77;6.68;;;;;;;;;;2056198;28;20085;-91
2023/06/20 03:59:38;;;;;;;12.23;6.63;;;;;;;;;;2048467;28;20133;-91
2023/06/20 04:00:39;;;;;;;9.20;6.53;;;;;;;;;;2056193;28;20019;-92
2023/06/20 04:01:40;;;;;;;9.48;6.85;;;;;;;;;;2057150;28;20034;-91
2023/06/20 04:02:45;;;;;;;9.20;6.07;;;;;;;;;;2056166;28;20042;-91
2023/06/20 04:03:46;;;;;;;9.60;6.75;;;;;;;;;;2058688;28;20085;-91
2023/06/20 04:04:49;;;;;;;12.27;7.47;;;;;;;;;;2055975;28;20479;-89
2023/06/20 04:05:51;;;;;;;12.10;6.70;;;;;;;;;;2048720;28;20023;-89
2023/06/20 04:06:51;;;;;;;7.32;6.40;;;;;;;;;;2056021;28;20635;-91
2023/06/20 04:07:52;;;;;;;9.98;6.70;;;;;;;;;;2048015;29;20051;-91
2023/06/20 04:08:52;;;;;;;8.82;6.47;;;;;;;;;;2056156;28;20085;-91
2023/06/20 04:09:53;;;;;;;9.13;6.85;;;;;;;;;;2056022;28;20113;-91
2023/06/20 04:10:53;;;;;;;;;;;;;;;;;;1698067;28;10433297;-91
2023/06/20 04:11:54;;;;;;;8.57;6.37;;;;;;;;;;2056261;28;19910;-91
2023/06/20 04:12:55;;;;;;;7.95;6.28;;;;;;;;;;1704552;28;10243244;-92
2023/06/20 04:13:55;;;;;;;9.45;6.60;;;;;;;;;;2056260;28;20035;-92
2023/06/20 04:14:56;;;;;;;9.90;7.00;;;;;;;;;;2055991;28;20031;-91
2023/06/20 04:15:56;;;;;;;9.52;6.60;;;;;;;;;;2055974;28;20027;-90
2023/06/20 04:16:57;;;;;;;10.90;7.43;;;;;;;;;;2056123;28;20030;-91
2023/06/20 04:17:58;;;;;;;8.57;6.93;;;;;;;;;;2056095;28;20027;-91
2023/06/20 04:18:58;;;;;;;9.77;7.25;;;;;;;;;;2048005;29;20058;-91
2023/06/20 04:19:59;;;;;;;9.38;7.10;;;;;;;;;;2040196;29;20116;-92
2023/06/20 04:21:02;;;;;;;7.50;6.50;;;;;;;;;;2047773;29;20050;-91
2023/06/20 04:22:02;;;;;;;10.65;7.57;;;;;;;;;;2056008;28;20037;-91
2023/06/20 04:23:03;;;;;;;13.73;7.63;;;;;;;;;;2056234;28;20027;-91
2023/06/20 04:24:03;;;;;;;9.70;7.22;;;;;;;;;;2047906;29;20250;-91
2023/06/20 04:25:04;;;;;;;11.45;7.75;;;;;;;;;;2047974;29;20039;-91
2023/06/20 04:26:05;;;;;;;10.85;7.18;;;;;;;;;;2047966;29;20073;-90
2023/06/20 04:27:06;;;;;;;11.95;8.15;;;;;;;;;;2047920;29;20035;-90
2023/06/20 04:28:06;;;;;;;10.18;7.38;;;;;;;;;;2048559;29;20035;-89
2023/06/20 04:29:06;;;;;;;12.43;7.70;;;;;;;;;;2048777;29;20115;-89
2023/06/20 04:30:08;;;;;;;11.05;7.43;;;;;;;;;;2056973;28;20035;-89
2023/06/20 04:31:08;;;;;;;9.27;6.65;;;;;;;;;;2048060;28;20125;-90
2023/06/20 04:32:09;;;;;;;9.38;7.18;;;;;;;;;;2047915;29;20530;-89
2023/06/20 04:33:10;;;;;;;8.13;6.55;;;;;;;;;;2056059;28;20190;-90
2023/06/20 04:34:10;;;;;;;10.52;6.82;;;;;;;;;;2056241;28;20073;-90
2023/06/20 04:35:11;;;;;;;9.15;6.15;;;;;;;;;;2056741;28;20491;-90
2023/06/20 04:36:13;;;;;;;12.63;7.30;;;;;;;;;;2055840;28;20035;-93
2023/06/20 04:37:13;;;;;;;10.18;7.07;;;;;;;;;;2055885;28;20033;-90
2023/06/20 04:38:14;;;;;;;9.48;6.63;;;;;;;;;;2056177;28;20037;-89
2023/06/20 04:39:14;;;;;;;10.50;6.35;;;;;;;;;;2055847;28;20401;-90
2023/06/20 04:40:14;;;;;;;7.95;6.22;;;;;;;;;;2056676;28;20054;-89
2023/06/20 04:41:15;;;;;;;10.00;5.97;;;;;;;;;;2059361;28;20037;-89
2023/06/20 04:42:18;;;;;;;10.27;6.65;;;;;;;;;;2064131;28;20082;-90
2023/06/20 04:43:22;;;;;;;8.45;6.13;;;;;;;;;;2064557;28;20082;-90
2023/06/20 04:44:22;;;;;;;8.82;6.40;;;;;;;;;;2057362;28;20078;-90
2023/06/20 04:45:23;;;;;;;9.63;6.47;;;;;;;;;;2065072;28;20057;-89
2023/06/20 04:46:24;;;;;;;7.90;5.82;;;;;;;;;;2065203;28;20090;-90
2023/06/20 04:47:24;;;;;;;8.18;6.13;;;;;;;;;;2062311;28;20041;-90
2023/06/20 04:48:28;;;;;;;9.82;6.80;;;;;;;;;;2048155;29;20031;-89
2023/06/20 04:49:29;;;;;;;10.27;5.88;;;;;;;;;;2056170;28;20085;-90
2023/06/20 04:50:29;;;;;;;6.45;5.60;;;;;;;;;;2056633;28;20101;-90
2023/06/20 04:51:31;;;;;;;10.07;6.32;;;;;;;;;;2056314;28;20424;-90
2023/06/20 04:52:32;;;;;;;7.30;6.07;;;;;;;;;;2055756;28;20499;-90
2023/06/20 04:53:33;;;;;;;8.20;5.90;;;;;;;;;;2047670;28;20066;-90
2023/06/20 04:54:34;;;;;;;7.77;6.20;;;;;;;;;;1669546;28;11075423;-90
2023/06/20 04:55:34;;;;;;;7.40;6.03;;;;;;;;;;1697231;28;10440632;-90
2023/06/20 04:56:40;;;;;;;8.80;6.95;;;;;;;;;;2056639;28;20093;-90
2023/06/20 04:57:42;;;;;;;7.85;5.53;;;;;;;;;;2055593;28;20134;-90
2023/06/20 04:58:45;;;;;;;6.55;5.95;;;;;;;;;;2055528;28;20419;-90
2023/06/20 04:59:49;;;;;;;6.82;6.10;;;;;;;;;;2055735;28;20033;-91
2023/06/20 05:00:52;;;;;;;6.90;6.15;;;;;;;;;;2061628;28;20008;-90
2023/06/20 05:01:52;;;;;;;6.43;5.80;;;;;;;;;;2065961;28;20039;-90
2023/06/20 05:02:53;;;;;;;8.27;5.93;;;;;;;;;;2065883;28;20018;-90
2023/06/20 05:03:54;;;;;;;6.28;5.30;;;;;;;;;;2065982;28;20010;-91
2023/06/20 05:04:54;;;;;;;7.47;5.95;;;;;;;;;;2064357;28;20061;-90
2023/06/20 05:05:55;;;;;;;7.43;5.78;;;;;;;;;;2063233;28;20208;-91
2023/06/20 05:06:55;;;;;;;5.65;5.10;;;;;;;;;;2056475;28;20081;-90
2023/06/20 05:07:56;;;;;;;7.95;5.60;;;;;;;;;;2056477;28;20106;-90
2023/06/20 05:08:57;;;;;;;6.05;5.50;;;;;;;;;;2055572;28;20455;-90
2023/06/20 05:09:57;;;;;;;8.98;5.60;;;;;;;;;;2045121;29;20071;-90
2023/06/20 05:10:58;;;;;;;8.15;5.55;;;;;;;;;;2055396;28;20061;-91
2023/06/20 05:11:58;;;;;;;6.88;5.15;;;;;;;;;;2055796;28;20022;-90
2023/06/20 05:12:59;;;;;;;6.80;5.40;;;;;;;;;;2055408;28;20027;-90
2023/06/20 05:14:00;;;;;;;8.23;6.05;;;;;;;;;;2047843;29;20027;-90
2023/06/20 05:15:01;;;;;;;7.20;5.75;;;;;;;;;;2055478;28;20027;-91
2023/06/20 05:16:02;;;;;;;7.38;5.50;;;;;;;;;;2055344;28;20485;-91
2023/06/20 05:17:03;;;;;;;6.88;5.38;;;;;;;;;;2047696;28;20105;-91
2023/06/20 05:18:03;;;;;;;6.45;5.70;;;;;;;;;;2047359;29;20047;-91
2023/06/20 05:19:04;;;;;;;9.15;5.65;;;;;;;;;;2055581;28;20029;-91
2023/06/20 05:20:06;;;;;;;7.20;5.95;;;;;;;;;;2056109;28;20026;-92
2023/06/20 05:21:07;;;;;;;6.32;5.78;;;;;;;;;;2055248;28;20522;-91
2023/06/20 05:22:08;;;;;;;6.53;5.85;;;;;;;;;;2055235;28;20034;-90
2023/06/20 05:23:08;;;;;;;6.63;5.97;;;;;;;;;;2047193;29;20023;-90
2023/06/20 05:24:09;;;;;;;6.82;5.72;;;;;;;;;;2047342;29;20062;-90
2023/06/20 05:25:09;;;;;;;8.18;6.05;;;;;;;;;;2055597;28;20058;-91
2023/06/20 05:26:11;;;;;;;8.10;6.28;;;;;;;;;;2055569;28;20506;-92
2023/06/20 05:27:11;;;;;;;6.97;5.93;;;;;;;;;;2047484;28;20055;-90
2023/06/20 05:28:11;;;;;;;9.45;7.00;;;;;;;;;;2047227;29;20019;-89
2023/06/20 05:29:12;;;;;;;9.05;6.55;;;;;;;;;;2055159;28;20045;-91
2023/06/20 05:30:12;;;;;;;6.55;5.95;;;;;;;;;;2058733;28;20057;-88
2023/06/20 05:31:13;;;;;;;8.85;6.10;;;;;;;;;;2058361;28;20455;-90
2023/06/20 05:32:14;;;;;;;7.10;6.40;;;;;;;;;;2055687;28;20019;-90
2023/06/20 05:33:15;;;;;;;8.05;6.53;;;;;;;;;;2054337;28;20030;-90
2023/06/20 05:42:22;;;;;;;7.40;6.30;;;;;;;;;;2048236;29;20416;-91
2023/06/20 05:45:31;;;;;;;7.30;5.40;;;;;;;;;;2047854;29;20099;-89
2023/06/20 05:46:31;;;;;;;7.20;5.82;;;;;;;;;;2048182;28;20035;-91
2023/06/20 05:47:34;;;;;;;8.32;5.90;;;;;;;;;;2050387;28;20495;-91
2023/06/20 05:50:34;;;;;;;7.07;5.80;;;;;;;;;;2056053;28;20495;-91
2023/06/20 05:53:36;;;;;;;6.85;5.97;;;;;;;;;;2038861;29;20555;-90
2023/06/20 05:56:57;;;;;;;6.93;5.65;;;;;;;;;;2019574;29;20044;-92
2023/06/20 06:00:26;;;;;;;6.35;5.65;;;;;;;;;;2015484;29;20104;-91
2023/06/20 06:05:03;;;;;;;6.30;5.13;;;;;;;;;;2001316;29;20526;-92
2023/06/20 06:06:03;;;;;;;6.50;5.90;;;;;;;;;;2018057;29;20037;-91
2023/06/20 06:07:07;;;;;;;6.80;6.07;;;;;;;;;;2015158;29;20021;-92
2023/06/20 06:08:08;;;;;;;6.35;5.70;;;;;;;;;;2015563;29;20069;-90
2023/06/20 06:09:09;;;;;;;11.60;6.07;;;;;;;;;;2044164;29;20035;-92
2023/06/20 06:10:10;;;;;;;6.38;5.72;;;;;;;;;;2047161;29;20491;-93
2023/06/20 06:11:10;;;;;;;7.80;6.78;;;;;;;;;;2047060;29;20027;-91
2023/06/20 06:12:11;;;;;;;6.80;5.82;;;;;;;;;;2039301;29;20035;-91
2023/06/20 06:13:11;;;;;;;9.93;6.32;;;;;;;;;;2047161;29;20058;-91
2023/06/20 06:14:12;;;;;;;6.35;5.75;;;;;;;;;;2047885;29;20098;-91
2023/06/20 06:15:14;;;;;;;6.00;5.40;;;;;;;;;;2047711;28;20043;-90
2023/06/20 06:16:14;;;;;;;9.75;6.20;;;;;;;;;;2055474;28;20027;-91
2023/06/20 06:17:15;;;;;;;8.88;5.75;;;;;;;;;;2047549;28;20453;-92
2023/06/20 06:18:18;;;;;;;6.30;5.70;;;;;;;;;;2047183;29;20031;-91
2023/06/20 06:19:20;;;;;;;7.18;6.07;;;;;;;;;;2044222;29;20063;-91
2023/06/20 06:20:23;;;;;;;8.00;5.10;;;;;;;;;;2042132;29;20027;-92
2023/06/20 06:21:26;;;;;;;5.43;4.95;;;;;;;;;;2042256;29;20042;-91
2023/06/20 06:22:26;;;;;;;5.95;5.03;;;;;;;;;;2050232;28;20508;-91
2023/06/20 06:23:27;;;;;;;7.50;5.32;;;;;;;;;;2050525;28;20030;-91
2023/06/20 06:24:30;;;;;;;5.47;4.90;;;;;;;;;;2049828;29;20546;-92
2023/06/20 06:25:45;;;;;;;5.15;4.40;;;;;;;;;;2042445;29;20028;-91
2023/06/20 06:26:47;;;;;;;5.50;4.88;;;;;;;;;;2043600;29;20068;-91
2023/06/20 06:27:47;;;;;;;4.97;4.57;;;;;;;;;;2049835;29;20026;-91
2023/06/20 06:28:48;;;;;;;5.45;4.50;;;;;;;;;;2050504;29;20035;-91
2023/06/20 06:29:48;;;;;;;5.00;4.50;;;;;;;;;;2049833;29;20091;-91
2023/06/20 06:30:49;;;;;;;5.55;5.00;;;;;;;;;;2042099;29;20051;-93
2023/06/20 06:31:49;;;;;;;5.18;4.70;;;;;;;;;;2042540;29;20078;-93
2023/06/20 06:32:50;;;;;;;5.95;4.63;;;;;;;;;;2057492;28;20042;-91
2023/06/20 06:33:54;;;;;;;5.20;4.60;;;;;;;;;;2058274;28;20125;-91
2023/06/20 06:34:59;;;;;;;5.85;4.70;;;;;;;;;;2058613;28;20023;-93
2023/06/20 06:35:59;;;;;;;6.10;4.80;;;;;;;;;;2058618;28;20098;-92
2023/06/20 06:37:01;;;;;;;5.25;4.72;;;;;;;;;;2057611;28;20447;-91